Lansing, Michigan
Current Conditions -  °F | °C
As of 11:53 PM on Sunday 21 Dec 2014 (Local Time) from KLAN Reporting Station
Haze Haze  
Wind Chill: 19°   Ceiling: Unl
Heat Index: 29°   Visibility: 6mi
Dew Point: 24°   Wind: 12mph
Humidity: 82%   Direction: 140°SE
Pressure: 30.15"   Gusts: NA
Location:  42.73°N, 84.55°W
Report Text: KLAN 220453Z 14010KT 6SM HZ CLR M02/M04 A3015 RMK AO2 SLP220 T10171044 400111028
Loading
Personal Weather Stations






























Interactive Weather Map New forecast layout! Learn more

10-Day Weather Forecast

Advertisements
Track Severe Weather on mobile